Escanaba, MI (49829)

11:07 PM EST on February 13, 2016 (GMT -0500)
Hurley Marine Lake Side Weather | | Change Station
CLOSE
Current Station
Personal Weather Station
Location: Escanaba, MI
Elevation: 607 ft
Nearby Weather Stations

Elev 607 ft 45.73 °N, 87.06 °W | Updated 2 seconds ago

Clear
Clear
2.9 °F
Feels Like 3 °F
N
0.0
Wind Variable Wind from West
Gusts 0.0 mph

Today
High -- | Low -- °F
--% Chance of Precip.
Yesterday
High -- | Low -- °F
Precip. -- in
Pressure 30.44 in
Visibility 9.0 miles
Clouds Clear
Windchill 3 °F
Dew Point -3 °F
Humidity 74%
Rainfall in
Snow Depth Not available.
7:54 AM 6:11 PM
Waxing Crescent, 37% visible
METAR KESC 140355Z AUTO 00000KT 9SM CLR M21/M28 A3044 RMK AO1
Pressure 30.44 in
Visibility 9.0 miles
Clouds Clear
Windchill 3 °F
Dew Point -3 °F
Humidity 74%
Rainfall in
Snow Depth Not available.
7:54 AM 6:11 PM
Waxing Crescent, 37% visible
METAR KESC 140355Z AUTO 00000KT 9SM CLR M21/M28 A3044 RMK AO1

10-Day Weather Forecast

Almanac

Astronomy

Feb. 13, 2016 Rise Set
Actual Time
Civil Twilight
Nautical Twilight
Astronomical Twilight
Moon
Length of Visible Light
Length of Day
Tomorrow will be .
, % of the Moon is Illuminated

Today's Extremes

State Highs State Lows

Community

WunderPhotos

Upload Photos

1,892,743 photos uploaded!

WunderBlog® & News

Nearby

Air Quality

  Air Quality AQ Index Pollutant
Not available.

Snow Depth

Station Depth Elevation

Earthquake Activity

City Distance Mag. Time & Date
Minimum magnitude displayed is 2.5.

Coastal Water Temperatures

Place Temperature

Stations

Nearby Weather Stations

Station Location Temp. Windchill Dew Point Humidity Wind Precip. Elev Updated Type
                   

Watches & Warnings

There are currently no watches in effect.